sensor_id;sensor_type;location;lat;lon;timestamp;P1;durP1;ratioP1;P2;durP2;ratioP2
51146;SDS011;37207;53.060;18.726;2023-12-20T00:01:06;38.10;;;30.30;;
51146;SDS011;37207;53.060;18.726;2023-12-20T00:03:41;17.80;;;11.20;;
51146;SDS011;37207;53.060;18.726;2023-12-20T00:06:08;19.30;;;10.80;;
51146;SDS011;37207;53.060;18.726;2023-12-20T00:08:36;50.50;;;35.60;;
51146;SDS011;37207;53.060;18.726;2023-12-20T00:11:02;17.10;;;11.70;;
51146;SDS011;37207;53.060;18.726;2023-12-20T00:13:29;35.40;;;30.90;;
51146;SDS011;37207;53.060;18.726;2023-12-20T00:15:55;31.00;;;27.40;;
51146;SDS011;37207;53.060;18.726;2023-12-20T00:18:22;26.20;;;23.80;;
51146;SDS011;37207;53.060;18.726;2023-12-20T00:20:49;13.90;;;9.10;;
51146;SDS011;37207;53.060;18.726;2023-12-20T00:23:16;31.70;;;28.20;;
51146;SDS011;37207;53.060;18.726;2023-12-20T00:25:42;12.90;;;10.50;;
51146;SDS011;37207;53.060;18.726;2023-12-20T00:28:09;36.10;;;31.00;;
51146;SDS011;37207;53.060;18.726;2023-12-20T00:30:35;37.10;;;29.70;;
51146;SDS011;37207;53.060;18.726;2023-12-20T00:33:02;31.30;;;27.70;;
51146;SDS011;37207;53.060;18.726;2023-12-20T00:35:29;11.50;;;7.00;;
51146;SDS011;37207;53.060;18.726;2023-12-20T00:37:55;39.90;;;30.60;;
51146;SDS011;37207;53.060;18.726;2023-12-20T00:40:22;40.10;;;31.10;;
51146;SDS011;37207;53.060;18.726;2023-12-20T00:42:50;53.10;;;36.40;;
51146;SDS011;37207;53.060;18.726;2023-12-20T00:45:16;58.30;;;40.30;;
51146;SDS011;37207;53.060;18.726;2023-12-20T00:47:43;30.50;;;16.10;;
51146;SDS011;37207;53.060;18.726;2023-12-20T00:50:09;65.50;;;42.90;;
51146;SDS011;37207;53.060;18.726;2023-12-20T00:52:36;26.00;;;12.50;;
51146;SDS011;37207;53.060;18.726;2023-12-20T00:55:03;43.50;;;32.60;;
51146;SDS011;37207;53.060;18.726;2023-12-20T00:57:30;17.80;;;9.70;;
51146;SDS011;37207;53.060;18.726;2023-12-20T00:59:57;13.90;;;8.80;;
51146;SDS011;37207;53.060;18.726;2023-12-20T01:02:24;24.10;;;22.10;;
51146;SDS011;37207;53.060;18.726;2023-12-20T01:04:50;26.50;;;23.90;;
51146;SDS011;37207;53.060;18.726;2023-12-20T01:07:17;22.10;;;20.40;;
51146;SDS011;37207;53.060;18.726;2023-12-20T01:09:43;10.80;;;7.00;;
51146;SDS011;37207;53.060;18.726;2023-12-20T01:12:10;19.30;;;18.10;;
51146;SDS011;37207;53.060;18.726;2023-12-20T01:14:36;17.50;;;16.40;;
51146;SDS011;37207;53.060;18.726;2023-12-20T01:17:03;6.70;;;6.10;;
51146;SDS011;37207;53.060;18.726;2023-12-20T01:19:30;16.00;;;15.20;;
51146;SDS011;37207;53.060;18.726;2023-12-20T01:21:56;8.50;;;7.20;;
51146;SDS011;37207;53.060;18.726;2023-12-20T01:24:23;6.20;;;5.60;;
51146;SDS011;37207;53.060;18.726;2023-12-20T01:26:49;7.70;;;5.50;;
51146;SDS011;37207;53.060;18.726;2023-12-20T01:29:16;17.90;;;16.90;;
51146;SDS011;37207;53.060;18.726;2023-12-20T01:31:42;18.20;;;17.10;;
51146;SDS011;37207;53.060;18.726;2023-12-20T01:34:09;16.40;;;15.60;;
51146;SDS011;37207;53.060;18.726;2023-12-20T01:36:36;7.10;;;6.00;;
51146;SDS011;37207;53.060;18.726;2023-12-20T01:39:02;15.40;;;14.50;;
51146;SDS011;37207;53.060;18.726;2023-12-20T01:41:29;8.00;;;5.80;;
51146;SDS011;37207;53.060;18.726;2023-12-20T01:43:55;17.90;;;16.60;;
51146;SDS011;37207;53.060;18.726;2023-12-20T01:46:22;8.40;;;6.80;;
51146;SDS011;37207;53.060;18.726;2023-12-20T01:48:48;16.40;;;15.10;;
51146;SDS011;37207;53.060;18.726;2023-12-20T01:51:15;20.20;;;18.60;;
51146;SDS011;37207;53.060;18.726;2023-12-20T01:53:43;16.90;;;15.70;;
51146;SDS011;37207;53.060;18.726;2023-12-20T01:56:10;10.70;;;7.50;;
51146;SDS011;37207;53.060;18.726;2023-12-20T01:58:43;19.80;;;18.00;;
51146;SDS011;37207;53.060;18.726;2023-12-20T02:01:11;6.10;;;5.50;;
51146;SDS011;37207;53.060;18.726;2023-12-20T02:03:39;16.20;;;15.10;;
51146;SDS011;37207;53.060;18.726;2023-12-20T02:08:35;6.00;;;5.50;;
51146;SDS011;37207;53.060;18.726;2023-12-20T02:11:02;16.30;;;15.20;;
51146;SDS011;37207;53.060;18.726;2023-12-20T02:13:29;26.70;;;23.30;;
51146;SDS011;37207;53.060;18.726;2023-12-20T02:15:57;32.10;;;25.70;;
51146;SDS011;37207;53.060;18.726;2023-12-20T02:18:23;16.20;;;7.70;;
51146;SDS011;37207;53.060;18.726;2023-12-20T02:20:50;25.80;;;23.00;;
51146;SDS011;37207;53.060;18.726;2023-12-20T02:23:17;27.20;;;22.90;;
51146;SDS011;37207;53.060;18.726;2023-12-20T02:25:43;10.70;;;7.10;;
51146;SDS011;37207;53.060;18.726;2023-12-20T02:28:10;34.90;;;26.90;;
51146;SDS011;37207;53.060;18.726;2023-12-20T02:30:37;45.20;;;31.70;;
51146;SDS011;37207;53.060;18.726;2023-12-20T02:33:03;15.20;;;9.10;;
51146;SDS011;37207;53.060;18.726;2023-12-20T02:35:37;6.40;;;5.70;;
51146;SDS011;37207;53.060;18.726;2023-12-20T02:38:04;22.10;;;19.90;;
51146;SDS011;37207;53.060;18.726;2023-12-20T02:40:31;7.30;;;3.90;;
51146;SDS011;37207;53.060;18.726;2023-12-20T02:42:58;21.70;;;19.00;;
51146;SDS011;37207;53.060;18.726;2023-12-20T02:45:25;17.30;;;15.80;;
51146;SDS011;37207;53.060;18.726;2023-12-20T02:47:53;9.20;;;4.70;;
51146;SDS011;37207;53.060;18.726;2023-12-20T02:50:19;13.90;;;13.10;;
51146;SDS011;37207;53.060;18.726;2023-12-20T02:52:46;14.10;;;13.10;;
51146;SDS011;37207;53.060;18.726;2023-12-20T02:55:13;7.00;;;5.60;;
51146;SDS011;37207;53.060;18.726;2023-12-20T02:57:39;6.90;;;6.20;;
51146;SDS011;37207;53.060;18.726;2023-12-20T03:00:09;7.00;;;6.30;;
51146;SDS011;37207;53.060;18.726;2023-12-20T03:02:37;16.30;;;15.30;;
51146;SDS011;37207;53.060;18.726;2023-12-20T03:05:03;36.10;;;26.60;;
51146;SDS011;37207;53.060;18.726;2023-12-20T03:07:30;24.90;;;11.20;;
51146;SDS011;37207;53.060;18.726;2023-12-20T03:09:56;68.50;;;41.20;;
51146;SDS011;37207;53.060;18.726;2023-12-20T03:12:23;31.60;;;11.00;;
51146;SDS011;37207;53.060;18.726;2023-12-20T03:14:50;55.30;;;34.80;;
51146;SDS011;37207;53.060;18.726;2023-12-20T03:17:16;59.90;;;36.80;;
51146;SDS011;37207;53.060;18.726;2023-12-20T03:19:43;60.90;;;36.70;;
51146;SDS011;37207;53.060;18.726;2023-12-20T03:22:09;52.00;;;33.80;;
51146;SDS011;37207;53.060;18.726;2023-12-20T03:24:36;26.40;;;11.90;;
51146;SDS011;37207;53.060;18.726;2023-12-20T03:27:02;62.70;;;38.10;;
51146;SDS011;37207;53.060;18.726;2023-12-20T03:29:29;54.80;;;35.80;;
51146;SDS011;37207;53.060;18.726;2023-12-20T03:31:55;30.00;;;13.10;;
51146;SDS011;37207;53.060;18.726;2023-12-20T03:34:22;59.30;;;36.10;;
51146;SDS011;37207;53.060;18.726;2023-12-20T03:36:48;43.90;;;15.90;;
51146;SDS011;37207;53.060;18.726;2023-12-20T03:39:15;32.50;;;13.70;;
51146;SDS011;37207;53.060;18.726;2023-12-20T03:41:41;62.40;;;37.80;;
51146;SDS011;37207;53.060;18.726;2023-12-20T03:44:08;62.70;;;38.50;;
51146;SDS011;37207;53.060;18.726;2023-12-20T03:46:34;58.20;;;36.50;;
51146;SDS011;37207;53.060;18.726;2023-12-20T03:49:01;54.50;;;36.90;;
51146;SDS011;37207;53.060;18.726;2023-12-20T03:51:27;52.10;;;35.00;;
51146;SDS011;37207;53.060;18.726;2023-12-20T03:53:54;53.60;;;36.80;;
51146;SDS011;37207;53.060;18.726;2023-12-20T03:56:20;25.50;;;11.80;;
51146;SDS011;37207;53.060;18.726;2023-12-20T03:58:47;63.60;;;38.00;;
51146;SDS011;37207;53.060;18.726;2023-12-20T04:01:14;59.30;;;37.30;;
51146;SDS011;37207;53.060;18.726;2023-12-20T04:03:40;49.30;;;32.00;;
51146;SDS011;37207;53.060;18.726;2023-12-20T04:06:07;29.80;;;10.90;;
51146;SDS011;37207;53.060;18.726;2023-12-20T04:08:33;57.70;;;36.50;;
51146;SDS011;37207;53.060;18.726;2023-12-20T04:11:00;13.30;;;7.60;;
51146;SDS011;37207;53.060;18.726;2023-12-20T04:13:26;39.70;;;31.20;;
51146;SDS011;37207;53.060;18.726;2023-12-20T04:15:53;25.50;;;22.70;;
51146;SDS011;37207;53.060;18.726;2023-12-20T04:18:19;27.60;;;23.80;;
51146;SDS011;37207;53.060;18.726;2023-12-20T04:20:46;13.90;;;7.30;;
51146;SDS011;37207;53.060;18.726;2023-12-20T04:23:13;16.00;;;9.70;;
51146;SDS011;37207;53.060;18.726;2023-12-20T04:25:39;68.70;;;41.20;;
51146;SDS011;37207;53.060;18.726;2023-12-20T04:28:06;23.00;;;10.40;;
51146;SDS011;37207;53.060;18.726;2023-12-20T04:30:32;51.20;;;35.00;;
51146;SDS011;37207;53.060;18.726;2023-12-20T04:32:59;52.10;;;37.10;;
51146;SDS011;37207;53.060;18.726;2023-12-20T04:35:26;20.10;;;9.50;;
51146;SDS011;37207;53.060;18.726;2023-12-20T04:37:52;43.40;;;30.60;;
51146;SDS011;37207;53.060;18.726;2023-12-20T04:40:19;60.80;;;42.20;;
51146;SDS011;37207;53.060;18.726;2023-12-20T04:42:46;63.10;;;38.60;;
51146;SDS011;37207;53.060;18.726;2023-12-20T04:45:13;48.00;;;19.90;;
51146;SDS011;37207;53.060;18.726;2023-12-20T04:47:42;57.20;;;40.20;;
51146;SDS011;37207;53.060;18.726;2023-12-20T04:50:08;75.10;;;49.30;;
51146;SDS011;37207;53.060;18.726;2023-12-20T04:52:36;71.00;;;47.60;;
51146;SDS011;37207;53.060;18.726;2023-12-20T04:55:02;31.40;;;15.30;;
51146;SDS011;37207;53.060;18.726;2023-12-20T04:57:29;66.90;;;43.90;;
51146;SDS011;37207;53.060;18.726;2023-12-20T04:59:55;26.00;;;13.50;;
51146;SDS011;37207;53.060;18.726;2023-12-20T05:02:22;62.70;;;43.00;;
51146;SDS011;37207;53.060;18.726;2023-12-20T05:04:49;40.80;;;29.70;;
51146;SDS011;37207;53.060;18.726;2023-12-20T05:07:15;27.80;;;24.70;;
51146;SDS011;37207;53.060;18.726;2023-12-20T05:09:42;260.80;;;147.10;;
51146;SDS011;37207;53.060;18.726;2023-12-20T05:12:09;53.80;;;17.80;;
51146;SDS011;37207;53.060;18.726;2023-12-20T05:14:35;26.20;;;23.60;;
51146;SDS011;37207;53.060;18.726;2023-12-20T05:17:02;16.50;;;15.20;;
51146;SDS011;37207;53.060;18.726;2023-12-20T05:19:29;6.40;;;5.40;;
51146;SDS011;37207;53.060;18.726;2023-12-20T05:21:56;16.20;;;15.30;;
51146;SDS011;37207;53.060;18.726;2023-12-20T05:24:22;15.40;;;14.70;;
51146;SDS011;37207;53.060;18.726;2023-12-20T05:26:49;33.10;;;30.20;;
51146;SDS011;37207;53.060;18.726;2023-12-20T05:29:15;18.00;;;11.50;;
51146;SDS011;37207;53.060;18.726;2023-12-20T05:31:43;14.50;;;13.70;;
51146;SDS011;37207;53.060;18.726;2023-12-20T05:34:09;11.20;;;10.60;;
51146;SDS011;37207;53.060;18.726;2023-12-20T05:36:36;4.30;;;4.00;;
51146;SDS011;37207;53.060;18.726;2023-12-20T05:39:03;3.50;;;3.30;;
51146;SDS011;37207;53.060;18.726;2023-12-20T05:41:30;11.20;;;10.50;;
51146;SDS011;37207;53.060;18.726;2023-12-20T05:43:57;16.50;;;15.20;;
51146;SDS011;37207;53.060;18.726;2023-12-20T05:46:26;11.10;;;10.50;;
51146;SDS011;37207;53.060;18.726;2023-12-20T05:48:53;3.20;;;2.90;;
51146;SDS011;37207;53.060;18.726;2023-12-20T05:51:20;9.20;;;8.70;;
51146;SDS011;37207;53.060;18.726;2023-12-20T05:53:46;7.70;;;7.30;;
51146;SDS011;37207;53.060;18.726;2023-12-20T05:56:13;3.00;;;2.50;;
51146;SDS011;37207;53.060;18.726;2023-12-20T05:58:40;4.70;;;4.30;;
51146;SDS011;37207;53.060;18.726;2023-12-20T06:01:07;9.70;;;9.20;;
51146;SDS011;37207;53.060;18.726;2023-12-20T06:03:34;8.50;;;8.10;;
51146;SDS011;37207;53.060;18.726;2023-12-20T06:06:06;8.40;;;7.90;;
51146;SDS011;37207;53.060;18.726;2023-12-20T06:08:33;5.70;;;5.40;;
51146;SDS011;37207;53.060;18.726;2023-12-20T06:11:00;5.40;;;5.10;;
51146;SDS011;37207;53.060;18.726;2023-12-20T06:13:26;5.30;;;5.10;;
51146;SDS011;37207;53.060;18.726;2023-12-20T06:15:56;13.80;;;12.80;;
51146;SDS011;37207;53.060;18.726;2023-12-20T06:18:23;27.60;;;24.90;;
51146;SDS011;37207;53.060;18.726;2023-12-20T06:20:50;14.90;;;8.50;;
51146;SDS011;37207;53.060;18.726;2023-12-20T06:23:17;14.70;;;9.50;;
51146;SDS011;37207;53.060;18.726;2023-12-20T06:25:43;56.20;;;39.50;;
51146;SDS011;37207;53.060;18.726;2023-12-20T06:28:10;44.70;;;32.10;;
51146;SDS011;37207;53.060;18.726;2023-12-20T06:30:40;14.10;;;13.00;;
51146;SDS011;37207;53.060;18.726;2023-12-20T06:33:07;8.80;;;5.00;;
51146;SDS011;37207;53.060;18.726;2023-12-20T06:35:33;16.80;;;15.20;;
51146;SDS011;37207;53.060;18.726;2023-12-20T06:38:00;4.20;;;3.30;;
51146;SDS011;37207;53.060;18.726;2023-12-20T06:40:27;9.70;;;8.80;;
51146;SDS011;37207;53.060;18.726;2023-12-20T06:42:54;7.70;;;7.10;;
51146;SDS011;37207;53.060;18.726;2023-12-20T06:45:20;3.70;;;2.70;;
51146;SDS011;37207;53.060;18.726;2023-12-20T06:47:47;8.70;;;8.10;;
51146;SDS011;37207;53.060;18.726;2023-12-20T06:50:13;13.60;;;12.40;;
51146;SDS011;37207;53.060;18.726;2023-12-20T06:52:40;7.70;;;3.40;;
51146;SDS011;37207;53.060;18.726;2023-12-20T06:55:07;9.20;;;7.80;;
51146;SDS011;37207;53.060;18.726;2023-12-20T06:57:33;10.30;;;6.90;;
51146;SDS011;37207;53.060;18.726;2023-12-20T07:00:01;14.70;;;13.70;;
51146;SDS011;37207;53.060;18.726;2023-12-20T07:02:29;11.70;;;10.80;;
51146;SDS011;37207;53.060;18.726;2023-12-20T07:04:56;14.10;;;13.10;;
51146;SDS011;37207;53.060;18.726;2023-12-20T07:07:23;9.80;;;5.40;;
51146;SDS011;37207;53.060;18.726;2023-12-20T07:09:50;13.20;;;12.10;;
51146;SDS011;37207;53.060;18.726;2023-12-20T07:12:17;21.60;;;14.50;;
51146;SDS011;37207;53.060;18.726;2023-12-20T07:14:46;6.50;;;5.50;;
51146;SDS011;37207;53.060;18.726;2023-12-20T07:17:13;17.60;;;16.10;;
51146;SDS011;37207;53.060;18.726;2023-12-20T07:19:41;17.10;;;15.50;;
51146;SDS011;37207;53.060;18.726;2023-12-20T07:22:08;17.80;;;16.70;;
51146;SDS011;37207;53.060;18.726;2023-12-20T07:24:35;26.70;;;24.20;;
51146;SDS011;37207;53.060;18.726;2023-12-20T07:27:01;12.10;;;7.30;;
51146;SDS011;37207;53.060;18.726;2023-12-20T07:29:28;29.60;;;26.90;;
51146;SDS011;37207;53.060;18.726;2023-12-20T07:31:54;15.50;;;9.60;;
51146;SDS011;37207;53.060;18.726;2023-12-20T07:34:21;32.00;;;28.80;;
51146;SDS011;37207;53.060;18.726;2023-12-20T07:36:47;18.50;;;12.70;;
51146;SDS011;37207;53.060;18.726;2023-12-20T07:39:17;33.70;;;30.20;;
51146;SDS011;37207;53.060;18.726;2023-12-20T07:41:45;38.40;;;35.10;;
51146;SDS011;37207;53.060;18.726;2023-12-20T07:44:11;33.30;;;30.20;;
51146;SDS011;37207;53.060;18.726;2023-12-20T07:46:38;11.00;;;9.20;;
51146;SDS011;37207;53.060;18.726;2023-12-20T07:49:04;10.80;;;8.30;;
51146;SDS011;37207;53.060;18.726;2023-12-20T07:51:31;22.00;;;20.20;;
51146;SDS011;37207;53.060;18.726;2023-12-20T07:53:58;11.90;;;10.50;;
51146;SDS011;37207;53.060;18.726;2023-12-20T07:56:24;58.60;;;52.20;;
51146;SDS011;37207;53.060;18.726;2023-12-20T07:58:51;25.60;;;14.90;;
51146;SDS011;37207;53.060;18.726;2023-12-20T08:01:18;30.80;;;26.40;;
51146;SDS011;37207;53.060;18.726;2023-12-20T08:03:45;17.50;;;10.40;;
51146;SDS011;37207;53.060;18.726;2023-12-20T08:06:11;17.00;;;15.80;;
51146;SDS011;37207;53.060;18.726;2023-12-20T08:08:38;18.60;;;7.80;;
51146;SDS011;37207;53.060;18.726;2023-12-20T08:11:05;15.90;;;5.90;;
51146;SDS011;37207;53.060;18.726;2023-12-20T08:13:31;29.30;;;16.60;;
51146;SDS011;37207;53.060;18.726;2023-12-20T08:15:58;11.80;;;4.90;;
51146;SDS011;37207;53.060;18.726;2023-12-20T08:18:25;150.10;;;43.30;;
51146;SDS011;37207;53.060;18.726;2023-12-20T08:20:52;403.50;;;219.70;;
51146;SDS011;37207;53.060;18.726;2023-12-20T08:23:20;434.50;;;120.50;;
51146;SDS011;37207;53.060;18.726;2023-12-20T08:25:47;677.40;;;461.70;;
51146;SDS011;37207;53.060;18.726;2023-12-20T08:28:14;222.40;;;130.20;;
51146;SDS011;37207;53.060;18.726;2023-12-20T08:30:41;62.10;;;22.90;;
51146;SDS011;37207;53.060;18.726;2023-12-20T08:33:09;79.40;;;48.20;;
51146;SDS011;37207;53.060;18.726;2023-12-20T08:35:39;15.30;;;10.00;;
51146;SDS011;37207;53.060;18.726;2023-12-20T08:38:06;34.40;;;24.50;;
51146;SDS011;37207;53.060;18.726;2023-12-20T08:40:33;11.20;;;6.10;;
51146;SDS011;37207;53.060;18.726;2023-12-20T08:42:59;13.80;;;12.50;;
51146;SDS011;37207;53.060;18.726;2023-12-20T08:45:26;11.90;;;10.90;;
51146;SDS011;37207;53.060;18.726;2023-12-20T08:47:53;17.00;;;15.50;;
51146;SDS011;37207;53.060;18.726;2023-12-20T08:50:20;31.20;;;24.30;;
51146;SDS011;37207;53.060;18.726;2023-12-20T08:52:46;33.50;;;15.30;;
51146;SDS011;37207;53.060;18.726;2023-12-20T08:55:13;21.30;;;13.90;;
51146;SDS011;37207;53.060;18.726;2023-12-20T08:57:41;24.00;;;21.20;;
51146;SDS011;37207;53.060;18.726;2023-12-20T09:00:08;13.90;;;9.20;;
51146;SDS011;37207;53.060;18.726;2023-12-20T09:02:34;46.00;;;31.50;;
51146;SDS011;37207;53.060;18.726;2023-12-20T09:05:05;21.90;;;9.90;;
51146;SDS011;37207;53.060;18.726;2023-12-20T09:07:32;61.30;;;37.30;;
51146;SDS011;37207;53.060;18.726;2023-12-20T09:09:58;206.80;;;81.80;;
51146;SDS011;37207;53.060;18.726;2023-12-20T09:12:25;310.30;;;105.40;;
51146;SDS011;37207;53.060;18.726;2023-12-20T09:14:52;48.30;;;16.40;;
51146;SDS011;37207;53.060;18.726;2023-12-20T09:17:19;88.80;;;17.70;;
51146;SDS011;37207;53.060;18.726;2023-12-20T09:19:46;187.40;;;60.80;;
51146;SDS011;37207;53.060;18.726;2023-12-20T09:22:13;250.80;;;86.80;;
51146;SDS011;37207;53.060;18.726;2023-12-20T09:24:39;34.20;;;9.70;;
51146;SDS011;37207;53.060;18.726;2023-12-20T09:27:06;170.80;;;68.30;;
51146;SDS011;37207;53.060;18.726;2023-12-20T09:29:33;108.40;;;44.80;;
51146;SDS011;37207;53.060;18.726;2023-12-20T09:31:59;21.80;;;8.40;;
51146;SDS011;37207;53.060;18.726;2023-12-20T09:34:26;48.10;;;30.10;;
51146;SDS011;37207;53.060;18.726;2023-12-20T09:36:53;29.70;;;21.70;;
51146;SDS011;37207;53.060;18.726;2023-12-20T09:39:20;32.40;;;12.80;;
51146;SDS011;37207;53.060;18.726;2023-12-20T09:41:56;33.30;;;21.60;;
51146;SDS011;37207;53.060;18.726;2023-12-20T09:44:27;10.70;;;9.60;;
51146;SDS011;37207;53.060;18.726;2023-12-20T09:46:55;15.60;;;7.10;;
51146;SDS011;37207;53.060;18.726;2023-12-20T09:49:22;7.30;;;3.40;;
51146;SDS011;37207;53.060;18.726;2023-12-20T09:51:50;19.60;;;10.70;;
51146;SDS011;37207;53.060;18.726;2023-12-20T09:54:18;6.50;;;3.20;;
51146;SDS011;37207;53.060;18.726;2023-12-20T09:56:44;15.30;;;8.30;;
51146;SDS011;37207;53.060;18.726;2023-12-20T09:59:11;8.50;;;2.10;;
51146;SDS011;37207;53.060;18.726;2023-12-20T10:01:39;8.50;;;6.70;;
51146;SDS011;37207;53.060;18.726;2023-12-20T10:04:08;12.80;;;9.20;;
51146;SDS011;37207;53.060;18.726;2023-12-20T10:06:41;5.00;;;3.10;;
51146;SDS011;37207;53.060;18.726;2023-12-20T10:09:09;6.30;;;3.20;;
51146;SDS011;37207;53.060;18.726;2023-12-20T10:11:37;5.70;;;4.50;;
51146;SDS011;37207;53.060;18.726;2023-12-20T10:14:05;12.50;;;7.30;;
51146;SDS011;37207;53.060;18.726;2023-12-20T10:16:33;9.40;;;8.50;;
51146;SDS011;37207;53.060;18.726;2023-12-20T10:19:00;12.20;;;11.00;;
51146;SDS011;37207;53.060;18.726;2023-12-20T10:21:30;8.20;;;3.90;;
51146;SDS011;37207;53.060;18.726;2023-12-20T10:23:57;8.40;;;5.60;;
51146;SDS011;37207;53.060;18.726;2023-12-20T10:26:25;7.30;;;5.10;;
51146;SDS011;37207;53.060;18.726;2023-12-20T10:28:56;12.00;;;6.60;;
51146;SDS011;37207;53.060;18.726;2023-12-20T10:31:26;6.40;;;5.80;;
51146;SDS011;37207;53.060;18.726;2023-12-20T10:33:58;2.90;;;1.50;;
51146;SDS011;37207;53.060;18.726;2023-12-20T10:36:26;5.50;;;4.70;;
51146;SDS011;37207;53.060;18.726;2023-12-20T10:38:54;6.20;;;5.10;;
51146;SDS011;37207;53.060;18.726;2023-12-20T10:41:29;5.00;;;2.40;;
51146;SDS011;37207;53.060;18.726;2023-12-20T10:44:00;5.10;;;4.60;;
51146;SDS011;37207;53.060;18.726;2023-12-20T10:46:29;13.80;;;4.30;;
51146;SDS011;37207;53.060;18.726;2023-12-20T10:48:56;7.00;;;4.70;;
51146;SDS011;37207;53.060;18.726;2023-12-20T10:51:23;9.40;;;8.20;;
51146;SDS011;37207;53.060;18.726;2023-12-20T10:56:19;19.90;;;12.50;;
51146;SDS011;37207;53.060;18.726;2023-12-20T10:58:52;16.50;;;9.70;;
51146;SDS011;37207;53.060;18.726;2023-12-20T11:01:20;25.60;;;14.00;;
51146;SDS011;37207;53.060;18.726;2023-12-20T11:03:51;39.90;;;20.20;;
51146;SDS011;37207;53.060;18.726;2023-12-20T11:14:48;11.30;;;9.60;;
51146;SDS011;37207;53.060;18.726;2023-12-20T11:17:17;20.00;;;13.50;;
51146;SDS011;37207;53.060;18.726;2023-12-20T11:22:26;34.30;;;15.20;;
51146;SDS011;37207;53.060;18.726;2023-12-20T11:25:06;20.40;;;12.10;;
51146;SDS011;37207;53.060;18.726;2023-12-20T11:27:37;14.80;;;5.80;;
51146;SDS011;37207;53.060;18.726;2023-12-20T11:30:07;19.30;;;13.90;;
51146;SDS011;37207;53.060;18.726;2023-12-20T11:32:36;9.30;;;5.80;;
51146;SDS011;37207;53.060;18.726;2023-12-20T11:37:37;22.70;;;14.40;;
51146;SDS011;37207;53.060;18.726;2023-12-20T11:40:08;27.90;;;14.80;;
51146;SDS011;37207;53.060;18.726;2023-12-20T11:42:39;13.70;;;5.90;;
51146;SDS011;37207;53.060;18.726;2023-12-20T11:45:13;37.40;;;17.80;;
51146;SDS011;37207;53.060;18.726;2023-12-20T11:47:45;28.70;;;13.90;;
51146;SDS011;37207;53.060;18.726;2023-12-20T11:50:13;64.90;;;15.40;;
51146;SDS011;37207;53.060;18.726;2023-12-20T11:52:39;54.10;;;29.40;;
51146;SDS011;37207;53.060;18.726;2023-12-20T11:55:06;27.80;;;14.80;;
51146;SDS011;37207;53.060;18.726;2023-12-20T11:57:33;12.20;;;7.30;;
51146;SDS011;37207;53.060;18.726;2023-12-20T12:00:00;24.10;;;11.00;;
51146;SDS011;37207;53.060;18.726;2023-12-20T12:02:27;111.90;;;54.40;;
51146;SDS011;37207;53.060;18.726;2023-12-20T12:04:53;116.30;;;60.50;;
51146;SDS011;37207;53.060;18.726;2023-12-20T12:07:21;58.60;;;18.00;;
51146;SDS011;37207;53.060;18.726;2023-12-20T12:09:48;32.10;;;18.80;;
51146;SDS011;37207;53.060;18.726;2023-12-20T12:12:15;22.30;;;12.60;;
51146;SDS011;37207;53.060;18.726;2023-12-20T12:14:42;29.00;;;18.00;;
51146;SDS011;37207;53.060;18.726;2023-12-20T12:17:11;28.70;;;9.80;;
51146;SDS011;37207;53.060;18.726;2023-12-20T12:19:39;28.10;;;15.20;;
51146;SDS011;37207;53.060;18.726;2023-12-20T12:22:10;10.80;;;6.10;;
51146;SDS011;37207;53.060;18.726;2023-12-20T12:24:40;51.90;;;30.80;;
51146;SDS011;37207;53.060;18.726;2023-12-20T12:27:08;22.20;;;11.80;;
51146;SDS011;37207;53.060;18.726;2023-12-20T12:29:35;7.50;;;3.90;;
51146;SDS011;37207;53.060;18.726;2023-12-20T12:32:08;12.50;;;7.30;;
51146;SDS011;37207;53.060;18.726;2023-12-20T12:34:35;20.00;;;14.70;;
51146;SDS011;37207;53.060;18.726;2023-12-20T12:37:05;16.70;;;10.30;;
51146;SDS011;37207;53.060;18.726;2023-12-20T12:39:32;19.40;;;12.80;;
51146;SDS011;37207;53.060;18.726;2023-12-20T12:41:58;16.00;;;6.40;;
51146;SDS011;37207;53.060;18.726;2023-12-20T12:44:25;17.10;;;5.90;;
51146;SDS011;37207;53.060;18.726;2023-12-20T12:46:52;25.10;;;19.50;;
51146;SDS011;37207;53.060;18.726;2023-12-20T12:49:20;17.30;;;11.00;;
51146;SDS011;37207;53.060;18.726;2023-12-20T12:51:48;43.30;;;30.40;;
51146;SDS011;37207;53.060;18.726;2023-12-20T12:54:15;52.30;;;30.50;;
51146;SDS011;37207;53.060;18.726;2023-12-20T12:56:44;41.30;;;16.10;;
51146;SDS011;37207;53.060;18.726;2023-12-20T12:59:13;38.70;;;27.60;;
51146;SDS011;37207;53.060;18.726;2023-12-20T13:01:39;37.70;;;16.60;;
51146;SDS011;37207;53.060;18.726;2023-12-20T13:04:06;21.90;;;11.50;;
51146;SDS011;37207;53.060;18.726;2023-12-20T13:06:37;42.10;;;29.90;;
51146;SDS011;37207;53.060;18.726;2023-12-20T13:09:04;33.20;;;21.40;;
51146;SDS011;37207;53.060;18.726;2023-12-20T13:11:31;30.70;;;17.50;;
51146;SDS011;37207;53.060;18.726;2023-12-20T13:14:00;67.00;;;47.80;;
51146;SDS011;37207;53.060;18.726;2023-12-20T13:16:26;49.80;;;31.60;;
51146;SDS011;37207;53.060;18.726;2023-12-20T13:18:53;25.50;;;19.10;;
51146;SDS011;37207;53.060;18.726;2023-12-20T13:21:19;10.50;;;4.70;;
51146;SDS011;37207;53.060;18.726;2023-12-20T13:23:46;14.50;;;10.80;;
51146;SDS011;37207;53.060;18.726;2023-12-20T13:26:12;5.50;;;4.30;;
51146;SDS011;37207;53.060;18.726;2023-12-20T13:28:39;11.90;;;8.60;;
51146;SDS011;37207;53.060;18.726;2023-12-20T13:31:05;13.70;;;8.00;;
51146;SDS011;37207;53.060;18.726;2023-12-20T13:33:32;27.60;;;11.10;;
51146;SDS011;37207;53.060;18.726;2023-12-20T13:35:58;9.30;;;5.80;;
51146;SDS011;37207;53.060;18.726;2023-12-20T13:38:26;15.60;;;4.70;;
51146;SDS011;37207;53.060;18.726;2023-12-20T13:40:52;11.00;;;9.30;;
51146;SDS011;37207;53.060;18.726;2023-12-20T13:43:19;12.90;;;9.80;;
51146;SDS011;37207;53.060;18.726;2023-12-20T13:45:48;26.10;;;13.70;;
51146;SDS011;37207;53.060;18.726;2023-12-20T13:48:14;13.80;;;8.10;;
51146;SDS011;37207;53.060;18.726;2023-12-20T13:50:41;42.20;;;20.70;;
51146;SDS011;37207;53.060;18.726;2023-12-20T13:53:08;46.30;;;16.70;;
51146;SDS011;37207;53.060;18.726;2023-12-20T13:55:34;108.80;;;49.20;;
51146;SDS011;37207;53.060;18.726;2023-12-20T13:58:01;68.80;;;14.40;;
51146;SDS011;37207;53.060;18.726;2023-12-20T14:00:27;87.70;;;39.50;;
51146;SDS011;37207;53.060;18.726;2023-12-20T14:02:54;78.10;;;39.80;;
51146;SDS011;37207;53.060;18.726;2023-12-20T14:05:20;48.60;;;30.10;;
51146;SDS011;37207;53.060;18.726;2023-12-20T14:07:49;43.60;;;12.30;;
51146;SDS011;37207;53.060;18.726;2023-12-20T14:10:16;50.50;;;17.30;;
51146;SDS011;37207;53.060;18.726;2023-12-20T14:12:42;45.00;;;17.40;;
51146;SDS011;37207;53.060;18.726;2023-12-20T14:15:10;27.60;;;12.70;;
51146;SDS011;37207;53.060;18.726;2023-12-20T14:20:06;12.50;;;8.80;;
51146;SDS011;37207;53.060;18.726;2023-12-20T14:22:34;9.00;;;6.40;;
51146;SDS011;37207;53.060;18.726;2023-12-20T14:25:01;18.20;;;16.30;;
51146;SDS011;37207;53.060;18.726;2023-12-20T14:27:28;5.90;;;5.10;;
51146;SDS011;37207;53.060;18.726;2023-12-20T14:29:55;12.30;;;6.10;;
51146;SDS011;37207;53.060;18.726;2023-12-20T14:32:22;9.00;;;8.00;;
51146;SDS011;37207;53.060;18.726;2023-12-20T14:34:48;9.10;;;6.30;;
51146;SDS011;37207;53.060;18.726;2023-12-20T14:37:15;17.40;;;13.80;;